Terminal Aerodrome Forecast
Issued by NWS

Home | Current Version | Previous Version | Graphics & Text | Print | Product List | Glossary On
Versions: 1 2 3 4 5 6 7 8 9 10 11 12 13 14 15 16 17 18 19 20 21 22 23 24 25 26 27 28 29 30 31 32
000
FTUS43 KLOT 252332
TAFDPA
TAF
KDPA 252332Z 2600/2624 26012KT P6SM BKN020
     FM260300 29009KT P6SM BKN035 BKN120
     FM260900 32013KT P6SM SCT040 BKN150
     FM261500 33012G20KT P6SM SCT025 BKN200
     FM262000 32013KT P6SM BKN040=

USA.gov is the U.S. government's official web portal to all federal, state and local government web resources and services.